Time;durP1;ratioP1;P1;durP2;ratioP2;P2;SDS_P1;SDS_P2;PMS_P1;PMS_P2;Temp;Humidity;BMP_temperature;BMP_pressure;BME280_temperature;BME280_humidity;BME280_pressure;Samples;Min_cycle;Max_cycle;Signal;HPM_P1;HPM_P2
2022/11/08 00:01:31;;;;;;;;;;;;;;;8.24;81.36;96877.97;30001;982;1872;-59
2022/11/08 00:02:02;;;;;;;;;;;;;;;8.22;81.24;96877.44;30001;982;1876;-58
2022/11/08 00:02:33;;;;;;;;;;;;;;;8.20;81.77;96879.59;30001;982;1881;-58
2022/11/08 00:03:03;;;;;;;;;;;;;;;8.22;81.74;96877.44;30001;982;1877;-58
2022/11/08 00:03:34;;;;;;;;;;;;;;;8.25;81.62;96879.59;30001;983;1880;-58
2022/11/08 00:04:06;;;;;;;;;;;;;;;8.22;81.32;96882.84;30001;983;1876;-65
2022/11/08 00:04:37;;;;;;;;;;;;;;;8.20;81.56;96876.91;30001;983;1880;-59
2022/11/08 00:14:07;;;;;;;;;;;;;;;8.11;82.15;96879.38;30001;983;1881;-58
2022/11/08 00:14:39;;;;;;;;;;;;;;;8.13;82.18;96871.78;30001;983;1877;-57
2022/11/08 00:15:09;;;;;;;;;;;;;;;8.13;82.30;96870.97;30001;983;1881;-57
2022/11/08 00:15:41;;;;;;;;;;;;;;;8.13;82.04;96879.09;30001;982;1782;-60
2022/11/08 00:16:11;;;;;;;;;;;;;;;8.13;81.98;96879.09;30001;982;1881;-57
2022/11/08 00:16:42;;;;;;;;;;;;;;;8.14;82.23;96878.00;30001;982;1863;-58
2022/11/08 00:17:16;;;;;;;;;;;;;;;8.15;81.74;96879.62;30001;982;1872;-57
2022/11/08 00:17:46;;;;;;;;;;;;;;;8.14;82.21;96872.59;30001;972;1897;-56
2022/11/08 00:18:17;;;;;;;;;;;;;;;8.14;82.07;96873.41;30001;983;1880;-57
2022/11/08 00:18:48;;;;;;;;;;;;;;;8.12;81.74;96864.78;30001;983;1876;-57
2022/11/08 00:19:19;;;;;;;;;;;;;;;8.11;82.19;96873.16;30001;983;1880;-58
2022/11/08 00:19:50;;;;;;;;;;;;;;;8.13;81.89;96868.28;30001;983;1876;-57
2022/11/08 00:20:21;;;;;;;;;;;;;;;8.14;81.85;96876.13;30001;983;1880;-58
2022/11/08 00:20:52;;;;;;;;;;;;;;;8.13;81.76;96865.56;30001;983;1863;-57
2022/11/08 00:21:23;;;;;;;;;;;;;;;8.13;81.86;96860.19;30001;983;1859;-58
2022/11/08 00:21:54;;;;;;;;;;;;;;;8.15;81.80;96866.09;30001;983;1876;-57
2022/11/08 00:22:28;;;;;;;;;;;;;;;8.13;81.74;96866.38;30001;986;1881;-59
2022/11/08 00:22:59;;;;;;;;;;;;;;;8.14;81.75;96867.19;30001;983;1876;-58
2022/11/08 00:23:30;;;;;;;;;;;;;;;8.11;81.92;96863.16;30001;982;1881;-58
2022/11/08 00:24:01;;;;;;;;;;;;;;;8.11;81.75;96867.75;30001;982;1876;-58
2022/11/08 00:24:33;;;;;;;;;;;;;;;8.13;81.94;96865.56;30001;982;1881;-58
2022/11/08 00:25:05;;;;;;;;;;;;;;;8.14;81.90;96864.50;30001;982;1877;-58
2022/11/08 00:25:35;;;;;;;;;;;;;;;8.12;82.00;96859.38;30001;982;1881;-58
2022/11/08 00:26:06;;;;;;;;;;;;;;;8.13;81.77;96862.88;30001;983;1876;-58
2022/11/08 00:26:37;;;;;;;;;;;;;;;8.13;81.60;96865.56;30001;983;1867;-56
2022/11/08 00:27:18;;;;;;;;;;;;;;;8.13;81.56;96865.56;30001;983;1867;-57
2022/11/08 00:27:49;;;;;;;;;;;;;;;8.14;81.95;96861.78;30001;983;1880;-58
2022/11/08 00:28:20;;;;;;;;;;;;;;;8.14;81.52;96861.78;30001;983;1876;-57
2022/11/08 00:28:51;;;;;;;;;;;;;;;8.12;82.04;96858.56;30001;983;1880;-59
2022/11/08 00:29:22;;;;;;;;;;;;;;;8.12;81.94;96861.25;30001;983;1876;-58
2022/11/08 00:29:53;;;;;;;;;;;;;;;8.10;81.90;96866.13;30001;983;1881;-59
2022/11/08 00:30:24;;;;;;;;;;;;;;;8.07;81.71;96867.50;30001;982;1876;-59
2022/11/08 00:30:55;;;;;;;;;;;;;;;8.07;82.13;96862.91;30001;982;1881;-58
2022/11/08 00:31:25;;;;;;;;;;;;;;;8.08;81.85;96863.69;30001;982;1876;-59
2022/11/08 00:31:56;;;;;;;;;;;;;;;8.10;81.86;96860.72;30001;982;1868;-59
2022/11/08 00:32:27;;;;;;;;;;;;;;;8.10;81.83;96860.72;30001;982;1868;-57
2022/11/08 00:32:58;;;;;;;;;;;;;;;8.10;81.76;96861.53;30001;982;1881;-60
2022/11/08 00:33:29;;;;;;;;;;;;;;;8.11;81.69;96862.34;30001;983;1798;-57
2022/11/08 00:34:00;;;;;;;;;;;;;;;8.12;81.52;96858.56;30001;983;1880;-58
2022/11/08 00:34:31;;;;;;;;;;;;;;;8.11;81.72;96856.94;30001;983;1876;-58
2022/11/08 00:35:03;;;;;;;;;;;;;;;8.10;81.95;96858.03;30001;983;1880;-59
2022/11/08 00:35:33;;;;;;;;;;;;;;;8.07;81.79;96854.78;30001;983;1876;-58
2022/11/08 00:36:05;;;;;;;;;;;;;;;8.06;81.82;96860.47;30001;964;1899;-62
2022/11/08 00:36:36;;;;;;;;;;;;;;;8.03;81.93;96856.44;30001;983;1876;-58
2022/11/08 00:37:06;;;;;;;;;;;;;;;8.03;81.95;96855.63;30001;983;1867;-57
2022/11/08 00:37:37;;;;;;;;;;;;;;;8.01;82.00;96855.91;30001;982;1868;-59
2022/11/08 00:38:08;;;;;;;;;;;;;;;8.01;82.17;96855.91;30001;982;1881;-58
2022/11/08 00:38:42;;;;;;;;;;;;;;;8.01;82.23;96858.59;30001;982;1876;-63
2022/11/08 00:39:13;;;;;;;;;;;;;;;8.02;82.03;96851.28;30001;975;1887;-58
2022/11/08 00:39:44;;;;;;;;;;;;;;;8.02;82.10;96854.00;30001;982;1868;-58
2022/11/08 00:40:15;;;;;;;;;;;;;;;8.00;82.07;96856.16;30001;982;1881;-58
2022/11/08 00:40:46;;;;;;;;;;;;;;;7.99;82.13;96857.25;30001;982;1877;-59
2022/11/08 00:41:17;;;;;;;;;;;;;;;7.96;82.31;96853.25;30001;983;1880;-58
2022/11/08 00:41:48;;;;;;;;;;;;;;;7.95;82.25;96848.91;30001;983;1876;-58
2022/11/08 00:42:18;;;;;;;;;;;;;;;7.97;82.36;96851.34;30001;983;1880;-58
2022/11/08 00:42:49;;;;;;;;;;;;;;;7.98;82.27;96851.03;30001;983;1876;-60
2022/11/08 00:43:20;;;;;;;;;;;;;;;8.00;82.14;96848.88;30001;983;1880;-60
2022/11/08 00:43:51;;;;;;;;;;;;;;;8.02;81.98;96849.41;30001;983;1876;-57
2022/11/08 00:44:22;;;;;;;;;;;;;;;8.03;81.97;96856.44;30001;983;1867;-57
2022/11/08 00:44:53;;;;;;;;;;;;;;;8.01;81.98;96853.19;30001;983;1867;-58
2022/11/08 00:45:24;;;;;;;;;;;;;;;7.96;82.16;96850.53;30001;982;1880;-58
2022/11/08 00:45:55;;;;;;;;;;;;;;;7.93;82.25;96851.09;30001;982;1876;-57
2022/11/08 00:46:26;;;;;;;;;;;;;;;7.92;82.48;96857.56;30001;982;1881;-58
2022/11/08 00:46:56;;;;;;;;;;;;;;;7.91;82.41;96853.25;30001;982;1877;-58
2022/11/08 00:47:27;;;;;;;;;;;;;;;7.90;82.67;96857.03;30001;982;1881;-57
2022/11/08 00:47:58;;;;;;;;;;;;;;;7.89;82.62;96852.72;30001;982;1877;-58
2022/11/08 00:49:38;;;;;;;;;;;;;;;7.87;82.86;96854.88;89987;930;17000;-57
2022/11/08 00:50:09;;;;;;;;;;;;;;;7.88;82.86;96853.81;30001;982;1869;-57
2022/11/08 00:50:40;;;;;;;;;;;;;;;7.86;83.01;96855.97;30001;982;1869;-57
2022/11/08 00:51:11;;;;;;;;;;;;;;;7.86;82.86;96855.97;30001;982;1882;-59
2022/11/08 00:51:42;;;;;;;;;;;;;;;7.86;82.95;96850.56;30001;982;1877;-58
2022/11/08 00:52:13;;;;;;;;;;;;;;;7.87;82.74;96859.47;30001;983;1880;-57
2022/11/08 00:52:44;;;;;;;;;;;;;;;7.87;83.04;96852.19;30001;983;1876;-58
2022/11/08 00:53:15;;;;;;;;;;;;;;;7.88;82.95;96853.81;30001;983;1880;-58
2022/11/08 00:53:48;;;;;;;;;;;;;;;7.89;82.85;96844.63;30001;983;1876;-57
2022/11/08 00:54:20;;;;;;;;;;;;;;;7.90;82.80;96845.44;30001;983;1880;-58
2022/11/08 00:54:52;;;;;;;;;;;;;;;7.90;82.51;96845.44;30001;983;1876;-57
2022/11/08 00:55:23;;;;;;;;;;;;;;;7.91;82.73;96853.25;30001;983;1867;-57
2022/11/08 00:56:00;;;;;;;;;;;;;;;7.91;82.72;96847.03;30001;983;1867;-58
2022/11/08 00:56:31;;;;;;;;;;;;;;;7.92;82.40;96841.38;30001;983;1881;-57
2022/11/08 00:57:02;;;;;;;;;;;;;;;7.91;82.25;96847.84;30001;982;1877;-57
2022/11/08 00:57:33;;;;;;;;;;;;;;;7.92;82.38;96848.66;30001;982;1881;-63
2022/11/08 00:58:04;;;;;;;;;;;;;;;7.89;82.59;96850.03;30001;982;1778;-57
2022/11/08 00:58:35;;;;;;;;;;;;;;;7.89;82.31;96850.03;30001;982;1881;-57
2022/11/08 00:59:05;;;;;;;;;;;;;;;7.88;82.62;96848.41;30001;982;1877;-58
2022/11/08 00:59:40;;;;;;;;;;;;;;;7.86;82.32;96842.47;30001;983;1880;-57
2022/11/08 01:00:12;;;;;;;;;;;;;;;7.85;82.49;96840.84;30001;983;1876;-57
2022/11/08 01:00:43;;;;;;;;;;;;;;;7.88;82.78;96848.41;30001;983;1867;-57
2022/11/08 01:01:15;;;;;;;;;;;;;;;7.89;82.37;96839.22;30001;983;1867;-58
2022/11/08 01:01:46;;;;;;;;;;;;;;;7.89;82.48;96844.63;30001;983;1880;-58
2022/11/08 01:02:17;;;;;;;;;;;;;;;7.90;82.62;96840.84;30001;983;1876;-57
2022/11/08 01:03:17;;;;;;;;;;;;;;;7.95;82.32;96838.13;30001;983;1881;-56
2022/11/08 01:03:39;;;;;;;;;;;;;;;7.95;82.15;96838.13;30001;982;1876;-57
2022/11/08 01:04:11;;;;;;;;;;;;;;;7.98;81.93;96845.63;30001;982;1881;-58
2022/11/08 01:04:42;;;;;;;;;;;;;;;8.02;81.63;96844.00;30001;982;1863;-57
2022/11/08 01:05:13;;;;;;;;;;;;;;;8.02;81.52;96840.50;30001;982;1872;-57
2022/11/08 01:05:45;;;;;;;;;;;;;;;8.00;81.87;96840.75;30001;970;1898;-57
2022/11/08 01:06:17;;;;;;;;;;;;;;;8.00;81.94;96842.66;30001;982;1868;-57
2022/11/08 01:06:48;;;;;;;;;;;;;;;7.96;81.76;96838.91;30001;982;1868;-57
2022/11/08 01:07:19;;;;;;;;;;;;;;;7.94;81.69;96841.91;30001;983;1880;-57
2022/11/08 01:07:49;;;;;;;;;;;;;;;7.94;81.97;96847.31;30001;983;1876;-57
2022/11/08 01:08:22;;;;;;;;;;;;;;;7.94;82.15;96839.19;30001;983;1880;-56
2022/11/08 01:08:54;;;;;;;;;;;;;;;7.93;82.10;96840.28;30001;983;1876;-58
2022/11/08 01:09:25;;;;;;;;;;;;;;;7.90;82.14;96840.03;30001;983;1867;-57
2022/11/08 01:09:56;;;;;;;;;;;;;;;7.88;82.02;96834.91;30001;983;1867;-57
2022/11/08 01:10:27;;;;;;;;;;;;;;;7.87;82.15;96827.88;30001;983;1829;-59
2022/11/08 01:11:04;;;;;;;;;;;;;;;7.87;82.17;96835.16;30001;983;1876;-57
2022/11/08 01:11:35;;;;;;;;;;;;;;;7.85;82.45;96831.94;30001;982;1880;-57
2022/11/08 01:12:07;;;;;;;;;;;;;;;7.85;82.55;96832.75;30001;982;1877;-57
2022/11/08 01:12:38;;;;;;;;;;;;;;;7.84;82.51;96836.53;30001;982;1868;-58
2022/11/08 01:13:10;;;;;;;;;;;;;;;7.84;82.47;96841.94;30001;967;1779;-57
2022/11/08 01:13:42;;;;;;;;;;;;;;;7.83;82.70;96834.09;30001;982;1881;-58
2022/11/08 01:14:15;;;;;;;;;;;;;;;7.80;82.47;96830.06;30001;982;1876;-57
2022/11/08 01:14:46;;;;;;;;;;;;;;;7.79;82.85;96836.53;30001;983;1880;-62
2022/11/08 01:15:17;;;;;;;;;;;;;;;7.78;82.76;96834.94;30001;983;1876;-59
2022/11/08 01:15:48;;;;;;;;;;;;;;;7.77;83.04;96835.19;30001;983;1880;-58
2022/11/08 01:16:22;;;;;;;;;;;;;;;7.76;83.18;96839.78;30001;983;1863;-58
2022/11/08 01:16:53;;;;;;;;;;;;;;;7.76;83.07;96830.87;30001;983;1872;-56
2022/11/08 01:17:24;;;;;;;;;;;;;;;7.74;82.91;96836.56;30001;985;1876;-57
2022/11/08 01:17:55;;;;;;;;;;;;;;;7.73;83.31;96834.94;30001;983;1881;-56
2022/11/08 01:18:26;;;;;;;;;;;;;;;7.70;83.11;96830.09;30001;983;1876;-57
2022/11/08 01:18:57;;;;;;;;;;;;;;;7.68;83.45;96833.06;30001;982;1881;-61
2022/11/08 01:19:28;;;;;;;;;;;;;;;7.69;83.19;96828.47;30001;982;1876;-58
2022/11/08 01:19:58;;;;;;;;;;;;;;;7.72;83.21;96831.44;30001;982;1868;-59
2022/11/08 01:20:29;;;;;;;;;;;;;;;7.76;82.92;96833.59;30001;982;1868;-64
2022/11/08 01:21:01;;;;;;;;;;;;;;;7.77;82.81;96830.59;30001;982;1881;-63
2022/11/08 01:21:32;;;;;;;;;;;;;;;7.78;82.71;96831.41;30001;983;1876;-58
2022/11/08 01:22:03;;;;;;;;;;;;;;;7.78;82.89;96829.53;30001;983;1880;-57
2022/11/08 01:22:34;;;;;;;;;;;;;;;7.78;82.86;96829.53;30001;983;1863;-64
2022/11/08 01:23:05;;;;;;;;;;;;;;;7.76;82.88;96829.00;30001;983;1872;-58
2022/11/08 01:23:36;;;;;;;;;;;;;;;7.78;82.87;96829.53;30001;983;1876;-58
2022/11/08 01:24:07;;;;;;;;;;;;;;;7.80;82.78;96826.56;30001;983;1880;-58
2022/11/08 01:24:38;;;;;;;;;;;;;;;7.77;82.78;96819.81;30001;983;1863;-58
2022/11/08 01:25:09;;;;;;;;;;;;;;;7.78;82.70;96817.91;30001;983;1872;-59
2022/11/08 01:25:44;;;;;;;;;;;;;;;7.77;82.52;96814.41;30001;983;1876;-59
2022/11/08 01:26:19;;;;;;;;;;;;;;;7.76;82.70;96818.19;30001;983;1881;-57
2022/11/08 01:26:50;;;;;;;;;;;;;;;7.76;82.49;96820.88;30001;982;1876;-59
2022/11/08 01:27:21;;;;;;;;;;;;;;;7.77;82.48;96814.41;30001;982;1880;-59
2022/11/08 01:27:53;;;;;;;;;;;;;;;7.78;82.69;96821.41;30001;982;1876;-59
2022/11/08 01:28:24;;;;;;;;;;;;;;;7.78;82.55;96821.41;30001;982;1881;-58
2022/11/08 01:28:56;;;;;;;;;;;;;;;7.80;82.30;96816.56;30001;983;1876;-59
2022/11/08 01:29:27;;;;;;;;;;;;;;;7.78;82.31;96820.63;30001;983;1880;-58
2022/11/08 01:29:57;;;;;;;;;;;;;;;7.80;82.43;96818.44;30001;983;1862;-59
2022/11/08 01:30:28;;;;;;;;;;;;;;;7.79;82.50;96817.63;30001;983;1872;-58
2022/11/08 01:31:03;;;;;;;;;;;;;;;7.79;82.52;96814.94;30001;983;1876;-58
2022/11/08 01:31:34;;;;;;;;;;;;;;;7.81;82.28;96825.47;30001;983;1880;-59
2022/11/08 01:32:05;;;;;;;;;;;;;;;7.80;82.21;96819.25;30001;983;1876;-58
2022/11/08 01:32:36;;;;;;;;;;;;;;;7.81;82.31;96820.88;30001;983;1881;-57
2022/11/08 01:33:07;;;;;;;;;;;;;;;7.79;82.17;96814.94;30001;983;1876;-57
2022/11/08 01:33:39;;;;;;;;;;;;;;;7.79;82.38;96822.22;30001;983;1881;-57
2022/11/08 01:34:10;;;;;;;;;;;;;;;7.79;82.43;96820.34;30001;982;1863;-57
2022/11/08 01:34:40;;;;;;;;;;;;;;;7.80;82.12;96824.66;30001;982;1872;-58
2022/11/08 01:35:11;;;;;;;;;;;;;;;7.85;81.90;96819.25;30001;986;1877;-57
2022/11/08 01:35:43;;;;;;;;;;;;;;;7.84;81.82;96820.31;30001;982;1868;-58
2022/11/08 01:36:16;;;;;;;;;;;;;;;7.83;82.35;96820.59;30001;982;1843;-57
2022/11/08 01:36:47;;;;;;;;;;;;;;;7.82;82.17;96817.09;30001;983;1880;-57
2022/11/08 01:37:18;;;;;;;;;;;;;;;7.80;82.04;96824.66;30001;983;1876;-57
2022/11/08 01:37:49;;;;;;;;;;;;;;;7.80;82.28;96827.34;30001;983;1880;-57
2022/11/08 01:38:21;;;;;;;;;;;;;;;7.78;82.21;96826.00;30001;983;1876;-57
2022/11/08 01:38:52;;;;;;;;;;;;;;;7.76;82.39;96817.38;30001;983;1867;-58
2022/11/08 01:39:23;;;;;;;;;;;;;;;7.75;82.26;96819.28;30001;983;1867;-58
2022/11/08 01:39:58;;;;;;;;;;;;;;;7.74;82.56;96818.47;30001;983;1881;-57
2022/11/08 01:40:29;;;;;;;;;;;;;;;7.74;82.21;96820.34;30001;983;1876;-59
2022/11/08 01:41:01;;;;;;;;;;;;;;;7.76;82.36;96820.88;30001;983;1867;-57
2022/11/08 01:41:32;;;;;;;;;;;;;;;7.75;82.39;96816.56;30001;982;1868;-56
2022/11/08 01:42:03;;;;;;;;;;;;;;;7.75;82.61;96821.97;30001;982;1881;-57
2022/11/08 01:42:34;;;;;;;;;;;;;;;7.77;82.40;96814.41;30001;982;1877;-57
2022/11/08 01:43:23;;;;;;;;;;;;;;;7.76;82.38;96815.50;30001;982;1881;-57
2022/11/08 01:43:55;;;;;;;;;;;;;;;7.82;82.21;96814.37;30001;983;1867;-57
2022/11/08 01:44:26;;;;;;;;;;;;;;;7.83;81.87;96813.31;30001;983;1867;-57
2022/11/08 01:45:02;;;;;;;;;;;;;;;7.83;81.86;96807.91;30001;983;1867;-58
2022/11/08 01:45:51;;;;;;;;;;;;;;;7.82;82.02;96811.69;30001;983;1880;-58
2022/11/08 01:46:42;;;;;;;;;;;;;;;7.80;81.89;96808.44;30001;983;1867;-58
2022/11/08 01:47:13;;;;;;;;;;;;;;;7.79;82.03;96806.84;30001;983;1876;-59
2022/11/08 01:47:44;;;;;;;;;;;;;;;7.79;82.09;96806.03;30001;983;1876;-59
2022/11/08 01:48:14;;;;;;;;;;;;;;;7.77;82.10;96806.31;30001;983;1881;-58
2022/11/08 01:48:48;;;;;;;;;;;;;;;7.80;82.36;96807.63;30001;983;1753;-60
2022/11/08 01:49:26;;;;;;;;;;;;;;;7.79;82.37;96801.44;30001;982;1872;-58
2022/11/08 01:50:16;;;;;;;;;;;;;;;7.82;81.96;96802.78;30001;982;1877;-57
2022/11/08 01:50:47;;;;;;;;;;;;;;;7.84;81.79;96806.81;30001;982;1881;-57
2022/11/08 01:51:21;;;;;;;;;;;;;;;7.83;81.74;96802.50;30001;982;1877;-59
2022/11/08 01:51:55;;;;;;;;;;;;;;;7.82;81.69;96795.47;30001;983;1867;-58
2022/11/08 01:52:38;;;;;;;;;;;;;;;7.82;81.48;96800.06;30001;983;1867;-57
2022/11/08 01:53:09;;;;;;;;;;;;;;;7.79;81.78;96796.03;30001;983;1880;-59
2022/11/08 01:53:40;;;;;;;;;;;;;;;7.76;81.86;96796.56;30001;983;1876;-65
2022/11/08 01:54:15;;;;;;;;;;;;;;;7.75;82.32;96794.97;30001;983;1880;-58
2022/11/08 01:55:20;;;;;;;;;;;;;;;7.74;81.92;96793.34;30001;983;1876;-57
2022/11/08 01:55:51;;;;;;;;;;;;;;;7.75;82.28;96786.84;30001;982;1863;-57
2022/11/08 01:56:23;;;;;;;;;;;;;;;7.74;82.01;96794.16;30001;982;1868;-57
2022/11/08 01:56:55;;;;;;;;;;;;;;;7.76;81.95;96788.47;30001;982;1868;-57
2022/11/08 01:57:35;;;;;;;;;;;;;;;7.78;82.09;96794.41;30001;982;1868;-57
2022/11/08 01:58:12;;;;;;;;;;;;;;;7.77;81.97;96787.38;30001;982;1881;-58
2022/11/08 01:58:44;;;;;;;;;;;;;;;7.77;82.10;96786.59;30001;982;1877;-58
2022/11/08 01:59:17;;;;;;;;;;;;;;;7.76;82.06;96785.78;30001;983;1880;-60
2022/11/08 01:59:50;;;;;;;;;;;;;;;7.77;81.87;96792.00;30001;983;1876;-58
2022/11/08 02:00:21;;;;;;;;;;;;;;;7.79;82.16;96787.94;30001;983;1880;-58
2022/11/08 02:00:52;;;;;;;;;;;;;;;7.81;81.72;96779.53;30001;983;1876;-57
2022/11/08 02:01:23;;;;;;;;;;;;;;;7.82;81.90;96784.66;30001;983;1880;-58
2022/11/08 02:01:55;;;;;;;;;;;;;;;7.80;81.70;96780.62;30001;983;1863;-57
2022/11/08 02:02:26;;;;;;;;;;;;;;;7.80;81.82;96773.34;30001;983;1872;-58
2022/11/08 02:02:58;;;;;;;;;;;;;;;7.81;81.43;96777.66;30001;983;1876;-58
2022/11/08 02:03:32;;;;;;;;;;;;;;;7.80;81.95;96770.63;30001;982;1881;-57
2022/11/08 02:04:03;;;;;;;;;;;;;;;7.84;81.52;96771.69;30001;982;1876;-58
2022/11/08 02:04:35;;;;;;;;;;;;;;;7.84;81.53;96777.09;30001;982;1881;-57
2022/11/08 02:05:23;;;;;;;;;;;;;;;7.85;81.48;96773.31;30001;982;1877;-57
2022/11/08 02:05:54;;;;;;;;;;;;;;;7.87;81.28;96760.34;30001;982;1868;-56
2022/11/08 02:06:26;;;;;;;;;;;;;;;7.89;81.34;96768.16;30001;982;1855;-58
2022/11/08 02:06:57;;;;;;;;;;;;;;;7.88;81.12;96763.84;30001;983;1880;-57
2022/11/08 02:07:30;;;;;;;;;;;;;;;7.86;80.93;96774.94;30001;983;1876;-57
2022/11/08 02:08:07;;;;;;;;;;;;;;;7.84;81.28;96766.28;30001;983;1867;-58
2022/11/08 02:08:39;;;;;;;;;;;;;;;7.82;81.40;96768.47;30001;983;1867;-57
2022/11/08 02:09:13;;;;;;;;;;;;;;;7.83;81.41;96770.09;30001;983;1880;-58
2022/11/08 02:09:45;;;;;;;;;;;;;;;7.83;81.42;96766.56;30001;983;1876;-57
2022/11/08 02:10:17;;;;;;;;;;;;;;;7.80;81.32;96765.22;30001;983;1868;-57
2022/11/08 02:10:49;;;;;;;;;;;;;;;7.79;81.40;96769.03;30001;982;1868;-59
2022/11/08 02:11:20;;;;;;;;;;;;;;;7.81;81.47;96766.84;30001;982;1881;-59
2022/11/08 02:11:52;;;;;;;;;;;;;;;7.80;81.35;96767.94;30001;982;1876;-57
2022/11/08 02:12:24;;;;;;;;;;;;;;;7.81;81.71;96766.03;30001;982;1881;-57
2022/11/08 02:12:55;;;;;;;;;;;;;;;7.82;81.20;96767.66;30001;982;1877;-58
2022/11/08 02:13:27;;;;;;;;;;;;;;;7.83;81.57;96759.28;30001;982;1881;-58
2022/11/08 02:13:58;;;;;;;;;;;;;;;7.87;81.40;96765.75;30001;982;1877;-57
2022/11/08 02:14:29;;;;;;;;;;;;;;;7.90;80.71;96758.97;30001;983;1867;-57
2022/11/08 02:15:00;;;;;;;;;;;;;;;7.88;80.65;96759.25;30001;983;1867;-57
2022/11/08 02:15:35;;;;;;;;;;;;;;;7.87;80.97;96760.34;30001;983;1880;-59
2022/11/08 02:16:10;;;;;;;;;;;;;;;7.87;81.14;96760.34;30001;983;1876;-57
2022/11/08 02:16:41;;;;;;;;;;;;;;;7.87;81.24;96754.94;30001;983;1880;-58
2022/11/08 02:17:13;;;;;;;;;;;;;;;7.89;80.71;96757.34;30001;983;1876;-57
2022/11/08 02:17:45;;;;;;;;;;;;;;;7.90;80.68;96759.78;30001;983;1881;-59
2022/11/08 02:18:18;;;;;;;;;;;;;;;7.92;80.37;96752.22;30001;982;1876;-58
2022/11/08 02:18:49;;;;;;;;;;;;;;;7.92;80.57;96757.62;30001;982;1868;-57
2022/11/08 02:19:31;;;;;;;;;;;;;;;7.91;80.78;96755.19;30001;982;1868;-59
2022/11/08 02:20:02;;;;;;;;;;;;;;;7.91;80.68;96756.00;30001;982;1881;-58
2022/11/08 02:20:34;;;;;;;;;;;;;;;7.89;80.72;96749.25;30001;982;1877;-58
2022/11/08 02:21:14;;;;;;;;;;;;;;;7.90;80.98;96759.78;30001;982;1881;-57
2022/11/08 02:21:48;;;;;;;;;;;;;;;7.93;80.66;96758.41;30001;983;1876;-58
2022/11/08 02:22:32;;;;;;;;;;;;;;;7.93;80.82;96753.81;30001;983;1880;-57
2022/11/08 02:23:24;;;;;;;;;;;;;;;7.91;80.64;96750.59;30001;983;1876;-56
2022/11/08 02:23:57;;;;;;;;;;;;;;;7.91;80.29;96750.59;30001;983;1867;-57
2022/11/08 02:24:28;;;;;;;;;;;;;;;7.91;80.39;96750.59;30001;983;1867;-57
2022/11/08 02:24:59;;;;;;;;;;;;;;;7.92;80.58;96754.91;30001;983;1881;-58
2022/11/08 02:25:30;;;;;;;;;;;;;;;7.94;80.10;96747.34;30001;983;1876;-60
2022/11/08 02:26:01;;;;;;;;;;;;;;;7.94;80.35;96750.03;30001;982;1868;-56
2022/11/08 02:26:32;;;;;;;;;;;;;;;7.95;80.34;96751.66;30001;982;1868;-58
2022/11/08 02:27:03;;;;;;;;;;;;;;;7.96;80.17;96752.47;30001;982;1881;-58
2022/11/08 02:27:38;;;;;;;;;;;;;;;7.95;80.59;96750.84;30001;982;1864;-57
2022/11/08 02:28:08;;;;;;;;;;;;;;;7.91;80.57;96739.78;30001;982;1872;-57
2022/11/08 02:28:44;;;;;;;;;;;;;;;7.90;80.67;96754.37;30001;983;1863;-58
2022/11/08 02:29:34;;;;;;;;;;;;;;;7.88;80.45;96744.94;30001;983;1871;-57
2022/11/08 02:30:05;;;;;;;;;;;;;;;7.87;80.43;96746.84;30001;983;1876;-57
2022/11/08 02:30:37;;;;;;;;;;;;;;;7.88;80.56;96745.75;30001;983;1880;-57
2022/11/08 02:31:08;;;;;;;;;;;;;;;7.89;80.52;96746.56;30001;983;1876;-57
2022/11/08 02:31:39;;;;;;;;;;;;;;;7.90;80.36;96748.97;30001;983;1880;-63
2022/11/08 02:32:11;;;;;;;;;;;;;;;7.90;79.96;96738.16;30001;983;1876;-58
2022/11/08 02:32:42;;;;;;;;;;;;;;;7.92;80.36;96741.41;30001;983;1880;-58
2022/11/08 02:33:20;;;;;;;;;;;;;;;7.93;79.92;96747.63;30001;983;1877;-57
2022/11/08 02:33:51;;;;;;;;;;;;;;;7.92;79.82;96744.09;30001;982;1868;-58
2022/11/08 02:34:28;;;;;;;;;;;;;;;7.90;79.94;96743.56;30001;982;1868;-57
2022/11/08 02:34:59;;;;;;;;;;;;;;;7.90;80.12;96740.88;30001;982;1881;-58
2022/11/08 02:35:30;;;;;;;;;;;;;;;7.92;79.90;96740.59;30001;982;1877;-57
2022/11/08 02:36:02;;;;;;;;;;;;;;;7.93;79.95;96739.50;30001;983;1880;-57
2022/11/08 02:36:33;;;;;;;;;;;;;;;7.94;79.90;96744.63;30001;983;1876;-58
2022/11/08 02:37:04;;;;;;;;;;;;;;;7.95;80.21;96734.62;30001;983;1880;-59
2022/11/08 02:37:38;;;;;;;;;;;;;;;7.97;79.67;96744.03;30001;983;1876;-58
2022/11/08 02:38:09;;;;;;;;;;;;;;;7.96;79.85;96734.34;30001;983;1880;-57
2022/11/08 02:38:42;;;;;;;;;;;;;;;7.96;79.63;96737.06;30001;983;1876;-59
2022/11/08 02:39:13;;;;;;;;;;;;;;;7.95;79.90;96738.16;30001;983;1867;-57
2022/11/08 02:39:45;;;;;;;;;;;;;;;7.94;79.49;96733.84;30001;983;1867;-57
2022/11/08 02:40:16;;;;;;;;;;;;;;;7.91;79.80;96731.69;30001;983;1881;-57
2022/11/08 02:40:51;;;;;;;;;;;;;;;7.89;80.25;96738.44;30001;983;1876;-59
2022/11/08 02:41:22;;;;;;;;;;;;;;;7.86;80.13;96731.72;30001;982;1881;-62
2022/11/08 02:41:53;;;;;;;;;;;;;;;7.85;80.17;96734.69;30001;982;1877;-57
2022/11/08 02:42:24;;;;;;;;;;;;;;;7.86;80.22;96733.59;30001;982;1881;-57
2022/11/08 02:42:54;;;;;;;;;;;;;;;7.86;80.27;96739.00;30001;982;1877;-59
2022/11/08 02:43:25;;;;;;;;;;;;;;;7.86;80.21;96725.50;30001;982;1881;-58
2022/11/08 02:43:57;;;;;;;;;;;;;;;7.85;80.47;96732.78;30001;983;1876;-58
2022/11/08 02:44:28;;;;;;;;;;;;;;;7.83;80.19;96734.97;30001;983;1867;-57
2022/11/08 02:44:59;;;;;;;;;;;;;;;7.82;80.18;96735.25;30001;983;1867;-58
2022/11/08 02:45:30;;;;;;;;;;;;;;;7.82;80.37;96730.66;30001;983;1880;-58
2022/11/08 02:46:01;;;;;;;;;;;;;;;7.81;80.49;96739.84;30001;983;1876;-57
2022/11/08 02:46:31;;;;;;;;;;;;;;;7.79;80.55;96730.41;30001;983;1880;-58
2022/11/08 02:47:02;;;;;;;;;;;;;;;7.77;80.74;96733.38;30001;983;1876;-57
2022/11/08 02:47:33;;;;;;;;;;;;;;;7.78;80.63;96729.59;30001;983;1881;-58
2022/11/08 02:48:04;;;;;;;;;;;;;;;7.77;80.78;96727.16;30001;983;1876;-58
2022/11/08 02:48:35;;;;;;;;;;;;;;;7.79;80.97;96731.19;30001;982;1881;-57
2022/11/08 02:49:06;;;;;;;;;;;;;;;7.77;80.73;96727.97;30001;982;1876;-59
2022/11/08 02:49:37;;;;;;;;;;;;;;;7.78;80.63;96726.88;30001;982;1868;-58
2022/11/08 02:50:08;;;;;;;;;;;;;;;7.79;80.40;96723.09;30001;982;1868;-57
2022/11/08 02:50:39;;;;;;;;;;;;;;;7.78;80.62;96723.37;30001;982;1881;-58
2022/11/08 02:51:10;;;;;;;;;;;;;;;7.78;80.58;96726.88;30001;983;1876;-58
2022/11/08 02:51:41;;;;;;;;;;;;;;;7.80;80.53;96726.59;30001;983;1880;-59
2022/11/08 02:52:12;;;;;;;;;;;;;;;7.79;80.35;96725.81;30001;983;1876;-58
2022/11/08 02:52:43;;;;;;;;;;;;;;;7.77;80.71;96722.56;30001;983;1880;-58
2022/11/08 02:53:14;;;;;;;;;;;;;;;7.76;80.61;96726.34;30001;983;1876;-58
2022/11/08 02:53:48;;;;;;;;;;;;;;;7.77;80.60;96721.75;30001;983;1880;-58
2022/11/08 02:54:20;;;;;;;;;;;;;;;7.76;80.78;96720.94;30001;983;1863;-60
2022/11/08 02:54:54;;;;;;;;;;;;;;;7.76;80.86;96715.56;30001;983;1872;-57
2022/11/08 02:55:25;;;;;;;;;;;;;;;7.78;80.50;96724.19;30001;983;1807;-59
2022/11/08 02:55:55;;;;;;;;;;;;;;;7.76;80.51;96715.56;30001;983;1881;-58
2022/11/08 02:56:27;;;;;;;;;;;;;;;7.75;80.84;96713.94;30001;963;1793;-59
2022/11/08 02:56:58;;;;;;;;;;;;;;;7.76;80.93;96720.94;30001;982;1881;-60
2022/11/08 02:57:29;;;;;;;;;;;;;;;7.75;80.33;96722.03;30001;982;1877;-58
2022/11/08 02:58:00;;;;;;;;;;;;;;;7.72;80.70;96726.09;30001;982;1881;-58
2022/11/08 02:58:31;;;;;;;;;;;;;;;7.70;80.55;96722.06;30001;982;1877;-59
2022/11/08 02:59:02;;;;;;;;;;;;;;;7.72;80.97;96719.91;30001;983;1880;-58
2022/11/08 02:59:33;;;;;;;;;;;;;;;7.73;80.78;96729.59;30001;983;1863;-58
2022/11/08 03:00:04;;;;;;;;;;;;;;;7.72;80.46;96714.50;30001;983;1858;-57
2022/11/08 03:00:36;;;;;;;;;;;;;;;7.71;80.81;96720.97;30001;983;1876;-58
2022/11/08 03:01:07;;;;;;;;;;;;;;;7.71;80.89;96718.28;30001;983;1880;-58
2022/11/08 03:01:38;;;;;;;;;;;;;;;7.70;80.69;96722.87;30001;983;1876;-57
2022/11/08 03:02:08;;;;;;;;;;;;;;;7.69;80.67;96720.44;30001;983;1881;-59
2022/11/08 03:02:39;;;;;;;;;;;;;;;7.70;80.61;96716.66;30001;983;1805;-59
2022/11/08 03:03:10;;;;;;;;;;;;;;;7.71;80.76;96718.28;30001;982;1881;-58
2022/11/08 03:03:41;;;;;;;;;;;;;;;7.73;80.56;96710.72;30001;982;1877;-58
2022/11/08 03:04:12;;;;;;;;;;;;;;;7.69;80.69;96712.34;30001;982;1868;-58
2022/11/08 03:04:43;;;;;;;;;;;;;;;7.67;80.56;96712.62;30001;961;1813;-59
2022/11/08 03:05:14;;;;;;;;;;;;;;;7.64;80.52;96709.66;30001;982;1881;-58
2022/11/08 03:05:46;;;;;;;;;;;;;;;7.63;80.92;96711.56;30001;982;1863;-58
2022/11/08 03:06:17;;;;;;;;;;;;;;;7.61;80.96;96715.66;30001;983;1871;-58